Time;durP1;ratioP1;P1;durP2;ratioP2;P2;SDS_P1;SDS_P2;PMS_P1;PMS_P2;Temp;Humidity;BMP_temperature;BMP_pressure;BME280_temperature;BME280_humidity;BME280_pressure;Samples;Min_cycle;Max_cycle;Signal;HPM_P1;HPM_P2
2022/01/18 00:00:11;;;;;;;2.48;0.90;;;;;;;;;;359495;147;858542;-63
2022/01/18 00:01:13;;;;;;;1.55;0.83;;;;;;;;;;358418;148;865730;-60
2022/01/18 00:02:14;;;;;;;2.18;1.12;;;;;;;;;;359802;147;865688;-60
2022/01/18 00:03:16;;;;;;;1.34;0.70;;;;;;;;;;364258;147;858804;-61
2022/01/18 00:04:18;;;;;;;1.21;0.81;;;;;;;;;;357618;147;857893;-62
2022/01/18 00:05:20;;;;;;;2.82;0.79;;;;;;;;;;358242;147;857426;-62
2022/01/18 00:06:22;;;;;;;1.04;0.90;;;;;;;;;;357800;148;864852;-61
2022/01/18 00:07:24;;;;;;;1.44;0.77;;;;;;;;;;359114;147;858166;-61
2022/01/18 00:08:25;;;;;;;1.10;0.74;;;;;;;;;;354775;148;864816;-62
2022/01/18 00:09:27;;;;;;;1.09;0.79;;;;;;;;;;357445;147;857409;-62
2022/01/18 00:10:31;;;;;;;1.09;0.76;;;;;;;;;;362933;148;864710;-61
2022/01/18 00:11:40;;;;;;;2.08;0.91;;;;;;;;;;355829;147;864860;-61
2022/01/18 00:12:55;;;;;;;1.09;0.80;;;;;;;;;;360165;147;864552;-62
2022/01/18 00:13:48;;;;;;;2.42;0.79;;;;;;;;;;351669;150;857955;-61
2022/01/18 00:15:05;;;;;;;0.75;0.69;;;;;;;;;;357488;147;859978;-61
2022/01/18 00:16:10;;;;;;;0.78;0.69;;;;;;;;;;354412;147;859803;-61
2022/01/18 00:17:16;;;;;;;1.10;0.78;;;;;;;;;;358420;147;857730;-61
2022/01/18 00:18:13;;;;;;;0.88;0.64;;;;;;;;;;359545;147;857768;-61
2022/01/18 00:19:14;;;;;;;2.29;0.83;;;;;;;;;;358643;147;858533;-61
2022/01/18 00:20:23;;;;;;;2.04;0.82;;;;;;;;;;358138;147;857249;-61
2022/01/18 00:21:31;;;;;;;5.42;0.73;;;;;;;;;;356394;149;859423;-61
2022/01/18 00:22:28;;;;;;;1.20;0.60;;;;;;;;;;356645;148;858942;-61
2022/01/18 00:23:29;;;;;;;2.27;0.70;;;;;;;;;;357622;147;857160;-61
2022/01/18 00:24:30;;;;;;;1.21;0.50;;;;;;;;;;360592;147;857272;-61
2022/01/18 00:25:34;;;;;;;2.01;1.04;;;;;;;;;;357249;147;865367;-61
2022/01/18 00:26:35;;;;;;;1.35;0.69;;;;;;;;;;358017;147;857529;-61
2022/01/18 00:27:37;;;;;;;0.77;0.60;;;;;;;;;;354767;147;865570;-61
2022/01/18 00:28:39;;;;;;;1.19;0.75;;;;;;;;;;355803;148;864745;-61
2022/01/18 00:30:00;;;;;;;1.71;0.84;;;;;;;;;;356576;147;863114;-61
2022/01/18 00:32:04;;;;;;;1.83;0.98;;;;;;;;;;358179;147;857872;-62
2022/01/18 00:33:14;;;;;;;0.71;0.53;;;;;;;;;;355755;147;865281;-61
2022/01/18 00:34:16;;;;;;;1.30;0.84;;;;;;;;;;356984;148;858369;-58
2022/01/18 00:35:12;;;;;;;0.59;0.57;;;;;;;;;;359203;147;857551;-60
2022/01/18 00:36:29;;;;;;;2.33;1.03;;;;;;;;;;356404;147;857719;-61
2022/01/18 00:37:39;;;;;;;1.36;0.70;;;;;;;;;;359676;147;858165;-61
2022/01/18 00:38:47;;;;;;;1.10;0.73;;;;;;;;;;357140;147;857640;-62
2022/01/18 00:39:48;;;;;;;0.82;0.66;;;;;;;;;;357526;147;860509;-61
2022/01/18 00:40:50;;;;;;;0.73;0.70;;;;;;;;;;356860;148;857709;-62
2022/01/18 00:41:52;;;;;;;2.08;1.01;;;;;;;;;;359237;147;858855;-62
2022/01/18 00:42:53;;;;;;;2.43;0.79;;;;;;;;;;357226;148;864953;-62
2022/01/18 00:43:55;;;;;;;6.61;0.93;;;;;;;;;;357742;148;864972;-62
2022/01/18 00:57:13;;;;;;;2.00;0.53;;;;;;;-1.97;84.79;98356.30;365082;146;857241;-61
2022/01/18 00:58:14;;;;;;;0.52;0.40;;;;;;;-1.85;84.67;98342.97;363856;147;859797;-62
2022/01/18 00:59:16;;;;;;;17.19;1.00;;;;;;;-1.78;84.63;98368.45;363542;147;857648;-62
2022/01/18 01:00:20;;;;;;;0.52;0.40;;;;;;;-1.79;83.69;98361.67;362850;146;865289;-62
2022/01/18 01:01:24;;;;;;;0.93;0.53;;;;;;;-1.92;82.63;98355.56;372800;144;865593;-62
2022/01/18 01:02:26;;;;;;;0.51;0.50;;;;;;;;;;373135;144;858812;-63
2022/01/18 01:03:27;;;;;;;4.15;0.68;;;;;;;;;;370876;144;858774;-62
2022/01/18 01:04:34;;;;;;;0.83;0.50;;;;;;;;;;370208;144;864455;-62
2022/01/18 01:05:34;;;;;;;1.52;0.56;;;;;;;;;;371911;144;859693;-61
2022/01/18 01:06:37;;;;;;;1.16;0.53;;;;;;;;;;370253;142;857193;-62
2022/01/18 01:07:40;;;;;;;0.96;0.60;;;;;;;;;;369832;143;857211;-61
2022/01/18 01:08:42;;;;;;;1.57;0.72;;;;;;;;;;370328;144;857264;-62
2022/01/18 01:09:44;;;;;;;1.46;0.52;;;;;;;;;;371075;144;859127;-62
2022/01/18 01:10:45;;;;;;;0.76;0.57;;;;;;;;;;371960;142;866397;-61
2022/01/18 01:11:48;;;;;;;10.75;1.14;;;;;;;;;;373404;143;859366;-62
2022/01/18 01:12:49;;;;;;;1.73;0.77;;;;;;;;;;373803;143;867691;-62
2022/01/18 01:13:52;;;;;;;1.65;0.70;;;;;;;;;;372555;143;858629;-61
2022/01/18 01:15:00;;;;;;;1.84;0.68;;;;;;;;;;371384;143;864942;-62
2022/01/18 01:16:13;;;;;;;0.70;0.59;;;;;;;-1.42;0.00;145396.27;370038;144;857348;-62
2022/01/18 01:17:22;;;;;;;14.36;1.06;;;;;;;;;;366835;144;864668;-63
2022/01/18 01:18:34;;;;;;;2.48;0.73;;;;;;;;;;370237;143;858160;-62
2022/01/18 01:32:11;;;;;;;3.73;0.72;;;;;;;;;;370936;144;857199;-62
2022/01/18 01:43:13;;;;;;;0.94;0.69;;;;;;;;;;372460;143;865825;-60
2022/01/18 01:45:15;;;;;;;;;;;;;;;;;;375273;143;857385;-61
2022/01/18 01:46:18;;;;;;;2.17;0.71;;;;;;;;;;370917;143;857176;-60
2022/01/18 01:47:22;;;;;;;1.93;0.74;;;;;;;;;;371589;143;859981;-61
2022/01/18 01:48:24;;;;;;;2.92;0.81;;;;;;;;;;373374;144;858863;-61
2022/01/18 01:49:27;;;;;;;1.42;0.79;;;;;;;;;;373099;143;858148;-61
2022/01/18 01:50:40;;;;;;;1.79;0.68;;;;;;;;;;374138;143;857331;-61
2022/01/18 01:51:33;;;;;;;6.12;0.92;;;;;;;;;;371614;144;857309;-62
2022/01/18 01:52:35;;;;;;;1.45;0.79;;;;;;;;;;372468;142;858020;-60
2022/01/18 01:53:36;;;;;;;1.45;0.70;;;;;;;;;;372476;142;857306;-61
2022/01/18 01:54:38;;;;;;;1.30;0.65;;;;;;;;;;366309;146;857446;-62
2022/01/18 01:55:40;;;;;;;0.66;0.62;;;;;;;;;;367319;146;866656;-61
2022/01/18 01:56:41;;;;;;;4.29;0.86;;;;;;;;;;366173;146;864093;-63
2022/01/18 01:57:43;;;;;;;1.33;0.59;;;;;;;;;;366745;145;857646;-62
2022/01/18 01:58:45;;;;;;;0.77;0.59;;;;;;;;;;366588;145;864805;-61
2022/01/18 01:59:46;;;;;;;1.25;0.80;;;;;;;;;;364676;146;864994;-61
2022/01/18 02:00:52;;;;;;;0.84;0.65;;;;;;;;;;366478;145;857458;-60
2022/01/18 02:01:54;;;;;;;1.38;0.77;;;;;;;;;;366923;145;866822;-63
2022/01/18 02:02:55;;;;;;;1.53;0.72;;;;;;;;;;366808;146;857764;-62
2022/01/18 02:03:57;;;;;;;1.39;0.79;;;;;;;;;;366231;145;864728;-62
2022/01/18 02:04:59;;;;;;;4.36;0.73;;;;;;;;;;365602;145;857189;-61
2022/01/18 02:06:01;;;;;;;2.44;0.70;;;;;;;;;;367220;145;857261;-62
2022/01/18 02:07:03;;;;;;;0.66;0.64;;;;;;;;;;366071;146;859132;-62
2022/01/18 02:08:07;;;;;;;1.07;0.61;;;;;;;;;;366248;145;865381;-62
2022/01/18 02:09:08;;;;;;;6.06;1.01;;;;;;;;;;366515;146;858588;-61
2022/01/18 02:10:12;;;;;;;4.38;0.87;;;;;;;;;;366769;146;857254;-62
2022/01/18 02:11:13;;;;;;;1.08;0.66;;;;;;;;;;367027;145;857401;-61
2022/01/18 02:12:18;;;;;;;3.44;0.66;;;;;;;;;;366275;146;864846;-61
2022/01/18 02:13:20;;;;;;;1.65;0.71;;;;;;;;;;365154;145;857400;-61
2022/01/18 02:14:23;;;;;;;1.03;0.68;;;;;;;;;;367040;146;858172;-61
2022/01/18 02:15:24;;;;;;;1.64;0.71;;;;;;;;;;365782;145;865829;-62
2022/01/18 02:21:51;;;;;;;0.89;0.61;;;;;;;;;;366829;145;858761;-62
2022/01/18 02:22:53;;;;;;;1.03;0.77;;;;;;;;;;366952;146;859064;-64
2022/01/18 02:23:54;;;;;;;3.96;1.12;;;;;;;;;;367099;145;865008;-64
2022/01/18 02:24:56;;;;;;;1.84;0.69;;;;;;;;;;365285;146;865088;-63
2022/01/18 02:25:58;;;;;;;0.79;0.64;;;;;;;;;;366558;145;857831;-64
2022/01/18 02:26:59;;;;;;;2.03;0.92;;;;;;;;;;363883;145;865963;-64
2022/01/18 02:28:01;;;;;;;1.54;0.87;;;;;;;;;;365648;145;859038;-64
2022/01/18 02:29:03;;;;;;;3.35;0.75;;;;;;;;;;365963;145;866349;-64
2022/01/18 02:30:06;;;;;;;1.17;0.75;;;;;;;;;;366496;146;864951;-63
2022/01/18 02:31:07;;;;;;;3.73;1.27;;;;;;;;;;365138;146;857801;-64
2022/01/18 02:32:09;;;;;;;2.03;0.74;;;;;;;;;;366557;145;859324;-64
2022/01/18 02:33:10;;;;;;;0.73;0.60;;;;;;;;;;366658;145;866777;-64
2022/01/18 02:34:19;;;;;;;0.79;0.50;;;;;;;;;;366438;146;862437;-66
2022/01/18 02:35:20;;;;;;;1.28;0.70;;;;;;;;;;366024;146;864864;-66
2022/01/18 02:36:24;;;;;;;0.88;0.72;;;;;;;;;;366894;145;858593;-65
2022/01/18 02:37:25;;;;;;;0.79;0.77;;;;;;;;;;365508;144;857455;-65
2022/01/18 02:38:27;;;;;;;2.57;0.82;;;;;;;;;;365877;144;864931;-65
2022/01/18 02:39:28;;;;;;;14.18;0.90;;;;;;;;;;366579;145;857364;-65
2022/01/18 02:40:31;;;;;;;2.86;0.60;;;;;;;;;;366719;146;859211;-64
2022/01/18 02:41:33;;;;;;;2.29;0.62;;;;;;;;;;364549;145;857039;-63
2022/01/18 02:42:44;;;;;;;0.69;0.69;;;;;;;;;;366918;145;864908;-65
2022/01/18 02:43:50;;;;;;;1.64;0.44;;;;;;;;;;365836;146;864933;-63
2022/01/18 02:44:52;;;;;;;0.73;0.63;;;;;;;;;;366217;146;865963;-64
2022/01/18 02:45:54;;;;;;;0.55;0.50;;;;;;;;;;366691;145;859650;-63
2022/01/18 02:46:56;;;;;;;11.83;1.23;;;;;;;;;;366141;145;864937;-64
2022/01/18 02:47:58;;;;;;;1.37;0.67;;;;;;;;;;366664;146;857641;-63
2022/01/18 02:48:59;;;;;;;1.94;0.66;;;;;;;;;;366004;146;857347;-63
2022/01/18 02:50:01;;;;;;;0.61;0.61;;;;;;;;;;363012;145;861009;-64
2022/01/18 02:51:03;;;;;;;0.77;0.67;;;;;;;;;;366448;146;857356;-63
2022/01/18 02:52:06;;;;;;;2.45;0.70;;;;;;;;;;366398;146;857890;-64
2022/01/18 02:53:07;;;;;;;1.27;0.65;;;;;;;;;;365753;146;857836;-64
2022/01/18 02:54:10;;;;;;;0.77;0.50;;;;;;;;;;366259;145;857789;-63
2022/01/18 02:55:11;;;;;;;0.69;0.55;;;;;;;;;;365094;145;865046;-63
2022/01/18 02:56:13;;;;;;;0.59;0.56;;;;;;;;;;364355;145;864901;-64
2022/01/18 02:57:23;;;;;;;1.24;0.59;;;;;;;;;;365960;144;857364;-64
2022/01/18 02:58:28;;;;;;;1.26;0.68;;;;;;;;;;363619;144;864869;-64
2022/01/18 02:59:43;;;;;;;1.32;0.71;;;;;;;;;;368947;144;858791;-64
2022/01/18 03:03:12;;;;;;;3.23;0.71;;;;;;;;;;365326;144;857310;-63
2022/01/18 03:04:13;;;;;;;6.22;1.24;;;;;;;;;;364476;145;866753;-64
2022/01/18 03:05:15;;;;;;;5.21;0.63;;;;;;;;;;367008;144;867240;-63
2022/01/18 03:06:18;;;;;;;0.98;0.70;;;;;;;;;;366606;144;864788;-63
2022/01/18 03:07:19;;;;;;;1.11;0.70;;;;;;;;;;366091;144;864984;-64
2022/01/18 03:08:21;;;;;;;2.43;0.68;;;;;;;;;;363945;144;864954;-63
2022/01/18 03:09:22;;;;;;;1.53;0.64;;;;;;;;;;367192;144;860165;-64
2022/01/18 03:10:26;;;;;;;1.71;0.74;;;;;;;;;;366132;144;861850;-64
2022/01/18 03:11:27;;;;;;;0.63;0.63;;;;;;;;;;364368;144;857369;-64
2022/01/18 03:12:29;;;;;;;0.89;0.66;;;;;;;;;;366237;144;864805;-64
2022/01/18 03:13:30;;;;;;;0.60;0.56;;;;;;;;;;366031;144;857419;-64
2022/01/18 03:14:32;;;;;;;1.29;0.61;;;;;;;;;;363648;144;866479;-64
2022/01/18 03:15:34;;;;;;;3.67;0.61;;;;;;;;;;363108;144;866013;-64
2022/01/18 03:16:36;;;;;;;1.32;0.63;;;;;;;;;;371210;144;859354;-64
2022/01/18 03:17:37;;;;;;;1.18;0.85;;;;;;;;;;364598;144;865772;-63
2022/01/18 03:18:39;;;;;;;0.65;0.65;;;;;;;;;;364195;144;866205;-64
2022/01/18 03:19:40;;;;;;;0.95;0.83;;;;;;;;;;365913;144;866653;-65
2022/01/18 03:20:42;;;;;;;0.50;0.50;;;;;;;;;;362941;144;865355;-64
2022/01/18 03:21:44;;;;;;;1.81;0.58;;;;;;;;;;365524;144;865633;-64
2022/01/18 03:22:48;;;;;;;0.87;0.56;;;;;;;;;;369093;144;866311;-64
2022/01/18 03:23:54;;;;;;;1.33;0.69;;;;;;;;;;365535;144;859511;-64
2022/01/18 03:25:59;;;;;;;2.20;0.99;;;;;;;;;;366317;144;864990;-64
2022/01/18 03:28:20;;;;;;;1.12;0.84;;;;;;;;;;366501;144;858924;-65
2022/01/18 03:31:26;;;;;;;1.04;0.69;;;;;;;-3.14;51.76;98740.62;371599;142;875400;-55
2022/01/18 03:32:28;;;;;;;0.83;0.80;;;;;;;;;;364561;145;857279;-55
2022/01/18 03:33:29;;;;;;;0.77;0.73;;;;;;;;;;363593;145;858412;-55
2022/01/18 03:34:31;;;;;;;1.21;0.80;;;;;;;;;;361539;144;860735;-55
2022/01/18 03:35:33;;;;;;;1.29;0.89;;;;;;;;;;361859;145;865019;-55
2022/01/18 03:36:34;;;;;;;6.79;0.83;;;;;;;;;;366020;145;866665;-55
2022/01/18 03:37:36;;;;;;;1.68;0.85;;;;;;;;;;364837;146;859474;-55
2022/01/18 03:38:38;;;;;;;3.03;0.89;;;;;;;;;;363930;146;859528;-55
2022/01/18 03:39:39;;;;;;;1.36;0.77;;;;;;;;;;365137;145;859037;-55
2022/01/18 03:40:41;;;;;;;3.94;0.99;;;;;;;;;;364252;147;865037;-55
2022/01/18 03:41:43;;;;;;;1.42;0.82;;;;;;;;;;364176;145;864923;-55
2022/01/18 03:42:47;;;;;;;2.93;0.90;;;;;;;;;;362037;145;857373;-55
2022/01/18 03:43:48;;;;;;;0.50;0.50;;;;;;;;;;362943;144;859077;-55
2022/01/18 03:44:49;;;;;;;1.57;0.65;;;;;;;;;;361675;145;859034;-55
2022/01/18 03:45:54;;;;;;;2.69;0.73;;;;;;;;;;362910;145;867393;-56
2022/01/18 03:46:55;;;;;;;3.89;0.81;;;;;;;;;;361010;145;856216;-57
2022/01/18 03:47:58;;;;;;;1.59;0.67;;;;;;;;;;362311;145;866068;-57
2022/01/18 03:49:02;;;;;;;1.14;0.79;;;;;;;;;;360793;146;865926;-57
2022/01/18 03:50:04;;;;;;;2.95;0.81;;;;;;;;;;359253;147;865832;-57
2022/01/18 03:51:06;;;;;;;1.54;0.62;;;;;;;;;;357474;147;864876;-57
2022/01/18 03:52:08;;;;;;;2.53;0.61;;;;;;;;;;360185;147;859011;-57
2022/01/18 03:53:11;;;;;;;3.68;0.65;;;;;;;;;;356823;147;857311;-57
2022/01/18 03:54:14;;;;;;;5.49;0.93;;;;;;;;;;356751;147;864962;-57
2022/01/18 03:55:17;;;;;;;1.08;0.80;;;;;;;;;;358796;147;857484;-57
2022/01/18 03:56:19;;;;;;;1.37;0.74;;;;;;;;;;356962;148;857806;-57
2022/01/18 03:57:21;;;;;;;0.73;0.60;;;;;;;;;;359284;147;857317;-58
2022/01/18 03:58:23;;;;;;;0.57;0.52;;;;;;;;;;357735;147;865714;-57
2022/01/18 03:59:24;;;;;;;0.80;0.68;;;;;;;;;;358587;147;865830;-57
2022/01/18 04:00:28;;;;;;;6.81;0.85;;;;;;;;;;358332;147;865930;-57
2022/01/18 04:01:30;;;;;;;3.14;0.81;;;;;;;;;;359399;148;857834;-57
2022/01/18 04:02:33;;;;;;;1.44;0.74;;;;;;;;;;358524;147;864940;-58
2022/01/18 04:03:34;;;;;;;9.31;0.82;;;;;;;;;;358102;147;860091;-58
2022/01/18 04:04:36;;;;;;;5.10;0.94;;;;;;;;;;359311;148;857403;-55
2022/01/18 04:05:38;;;;;;;2.21;0.70;;;;;;;;;;359718;147;864510;-58
2022/01/18 04:06:39;;;;;;;6.81;0.96;;;;;;;;;;357675;147;857397;-57
2022/01/18 04:07:41;;;;;;;1.08;0.85;;;;;;;;;;360614;147;864766;-57
2022/01/18 04:08:43;;;;;;;0.78;0.70;;;;;;;;;;358977;148;859438;-55
2022/01/18 04:09:44;;;;;;;0.94;0.86;;;;;;;;;;358950;148;861540;-55
2022/01/18 04:10:46;;;;;;;1.69;0.91;;;;;;;;;;359008;147;857374;-56
2022/01/18 04:11:48;;;;;;;3.04;1.02;;;;;;;;;;354523;149;859408;-55
2022/01/18 04:12:49;;;;;;;0.84;0.67;;;;;;;;;;360223;147;865700;-55
2022/01/18 04:13:51;;;;;;;0.63;0.63;;;;;;;;;;357327;148;857424;-55
2022/01/18 04:14:54;;;;;;;1.05;0.67;;;;;;;;;;361455;147;864948;-55
2022/01/18 04:15:55;;;;;;;7.59;0.86;;;;;;;;;;358186;147;863312;-56
2022/01/18 04:17:11;;;;;;;1.30;0.53;;;;;;;;;;358024;148;857260;-56
2022/01/18 04:26:57;;;;;;;1.15;1.05;;;;;;;;;;347416;152;856734;-56
2022/01/18 04:28:06;;;;;;;4.45;0.93;;;;;;;;;;352690;150;857044;-56
2022/01/18 04:29:02;;;;;;;1.42;0.72;;;;;;;;;;352350;150;856221;-56
2022/01/18 04:30:04;;;;;;;0.99;0.65;;;;;;;;;;353254;150;856628;-56
2022/01/18 04:31:06;;;;;;;2.69;1.01;;;;;;;;;;352673;150;863752;-56
2022/01/18 04:32:08;;;;;;;0.86;0.71;;;;;;;;;;355519;149;856076;-56
2022/01/18 04:33:09;;;;;;;0.84;0.58;;;;;;;;;;354039;149;856374;-56
2022/01/18 04:34:11;;;;;;;0.59;0.59;;;;;;;;;;354331;149;862310;-56
2022/01/18 04:35:12;;;;;;;2.41;1.46;;;;;;;;;;355855;149;856701;-56
2022/01/18 04:36:14;;;;;;;0.66;0.59;;;;;;;;;;353091;150;864218;-55
2022/01/18 04:37:16;;;;;;;0.99;0.80;;;;;;;;;;355663;149;860220;-55
2022/01/18 04:38:18;;;;;;;0.99;0.74;;;;;;;;;;355560;149;865210;-55
2022/01/18 04:39:19;;;;;;;1.17;0.74;;;;;;;;;;356231;149;859210;-56
2022/01/18 04:40:27;;;;;;;2.99;0.83;;;;;;;;;;355262;150;863311;-55
2022/01/18 04:41:28;;;;;;;2.22;0.70;;;;;;;;;;354907;149;858033;-57
2022/01/18 04:42:43;;;;;;;0.90;0.64;;;;;;;;;;353970;149;857392;-57
2022/01/18 04:43:50;;;;;;;1.44;0.89;;;;;;;;;;354923;149;857203;-56
2022/01/18 04:48:44;;;;;;;1.97;0.79;;;;;;;;;;355159;149;866683;-56
2022/01/18 04:49:46;;;;;;;1.00;0.79;;;;;;;;;;354426;149;857852;-56
2022/01/18 04:50:48;;;;;;;7.36;1.29;;;;;;;;;;354854;149;865002;-57
2022/01/18 04:51:50;;;;;;;2.11;0.80;;;;;;;;;;352051;149;864877;-55
2022/01/18 04:52:51;;;;;;;0.79;0.79;;;;;;;;;;354538;148;857497;-56
2022/01/18 04:53:58;;;;;;;3.11;0.97;;;;;;;;;;353571;149;865458;-56
2022/01/18 04:55:01;;;;;;;5.41;0.79;;;;;;;;;;356483;149;858537;-55
2022/01/18 04:56:07;;;;;;;1.62;0.94;;;;;;;;;;356443;149;856640;-57
2022/01/18 04:58:11;;;;;;;1.00;0.84;;;;;;;;;;353152;150;859145;-57
2022/01/18 04:59:14;;;;;;;0.90;0.87;;;;;;;;;;354984;148;857457;-57
2022/01/18 05:00:17;;;;;;;1.93;0.71;;;;;;;;;;355544;148;856178;-57
2022/01/18 05:01:18;;;;;;;1.36;1.01;;;;;;;;;;353997;149;857268;-57
2022/01/18 05:02:20;;;;;;;1.63;0.76;;;;;;;;;;355753;149;863917;-57
2022/01/18 05:03:21;;;;;;;1.21;0.89;;;;;;;;;;356192;149;866831;-56
2022/01/18 05:04:23;;;;;;;1.28;1.04;;;;;;;;;;355384;149;857549;-55
2022/01/18 05:05:30;;;;;;;1.11;0.78;;;;;;;;;;355379;149;864972;-56
2022/01/18 05:06:31;;;;;;;0.67;0.67;;;;;;;;;;355698;149;864899;-56
2022/01/18 05:07:33;;;;;;;1.35;0.65;;;;;;;;;;354814;149;857352;-56
2022/01/18 05:08:35;;;;;;;1.63;0.89;;;;;;;;;;354320;149;857354;-56
2022/01/18 05:09:37;;;;;;;3.99;0.83;;;;;;;;;;355798;149;859397;-56
2022/01/18 05:10:40;;;;;;;1.23;0.75;;;;;;;;;;354373;149;858088;-57
2022/01/18 05:11:50;;;;;;;1.47;0.83;;;;;;;;;;356781;149;858194;-56
2022/01/18 05:12:48;;;;;;;2.45;0.89;;;;;;;;;;352350;149;859026;-56
2022/01/18 05:15:35;;;;;;;2.17;0.85;;;;;;;;;;343151;154;857422;-59
2022/01/18 05:19:39;;;;;;;1.35;0.95;;;;;;;;;;345814;153;865451;-57
2022/01/18 05:22:59;;;;;;;1.60;0.70;;;;;;;;;;338651;154;856984;-57
2022/01/18 05:23:59;;;;;;;0.89;0.78;;;;;;;;;;341644;154;858433;-58
2022/01/18 05:25:01;;;;;;;4.26;1.10;;;;;;;;;;354581;149;859244;-58
2022/01/18 05:26:03;;;;;;;1.59;0.80;;;;;;;;;;355672;149;865441;-56
2022/01/18 05:27:05;;;;;;;0.99;0.74;;;;;;;;;;354044;149;860477;-59
2022/01/18 05:28:07;;;;;;;0.93;0.73;;;;;;;;;;353898;149;858193;-58
2022/01/18 05:29:08;;;;;;;1.11;0.83;;;;;;;;;;355944;148;859096;-57
2022/01/18 05:30:10;;;;;;;1.24;0.81;;;;;;;;;;355442;149;858770;-57
2022/01/18 05:31:12;;;;;;;2.14;0.89;;;;;;;;;;356191;149;859177;-59
2022/01/18 05:32:14;;;;;;;1.36;0.91;;;;;;;;;;354124;149;864915;-57
2022/01/18 05:33:15;;;;;;;0.79;0.70;;;;;;;;;;356262;149;864978;-55
2022/01/18 05:34:17;;;;;;;1.73;0.81;;;;;;;;;;355666;148;857417;-56
2022/01/18 05:35:19;;;;;;;1.44;0.95;;;;;;;;;;356017;149;862449;-58
2022/01/18 05:36:22;;;;;;;0.96;0.71;;;;;;;;;;355802;149;865131;-58
2022/01/18 05:37:24;;;;;;;1.83;0.80;;;;;;;;;;356967;149;857337;-59
2022/01/18 05:38:26;;;;;;;0.67;0.67;;;;;;;;;;356974;148;857287;-59
2022/01/18 05:39:27;;;;;;;1.71;0.90;;;;;;;;;;356911;149;864963;-57
2022/01/18 05:40:30;;;;;;;1.06;0.82;;;;;;;;;;356894;148;865017;-57
2022/01/18 05:41:32;;;;;;;1.59;1.03;;;;;;;;;;356733;148;857326;-56
2022/01/18 05:42:33;;;;;;;2.57;0.88;;;;;;;;;;358296;149;859111;-57
2022/01/18 05:43:35;;;;;;;2.32;0.85;;;;;;;;;;357456;148;865948;-57
2022/01/18 05:44:36;;;;;;;1.33;0.79;;;;;;;;;;355809;149;864274;-57
2022/01/18 05:45:38;;;;;;;1.34;0.91;;;;;;;;;;354007;148;858436;-55
2022/01/18 05:46:40;;;;;;;1.13;0.86;;;;;;;;;;356895;149;865102;-55
2022/01/18 05:47:41;;;;;;;1.26;1.05;;;;;;;;;;357046;149;865474;-57
2022/01/18 05:48:43;;;;;;;4.31;1.29;;;;;;;;;;356857;148;865605;-56
2022/01/18 05:49:44;;;;;;;1.56;1.00;;;;;;;;;;356253;149;857234;-54
2022/01/18 05:50:46;;;;;;;1.26;0.94;;;;;;;;;;357132;149;865295;-54
2022/01/18 05:51:48;;;;;;;2.74;1.01;;;;;;;;;;355435;148;864966;-55
2022/01/18 05:52:49;;;;;;;2.47;0.88;;;;;;;;;;356720;149;865025;-55
2022/01/18 05:53:51;;;;;;;1.26;0.89;;;;;;;;;;356652;149;857452;-55
2022/01/18 05:54:52;;;;;;;1.11;0.98;;;;;;;;;;355107;149;862456;-57
2022/01/18 05:55:54;;;;;;;2.05;0.93;;;;;;;;;;355185;149;857467;-57
2022/01/18 05:56:55;;;;;;;3.56;0.97;;;;;;;;;;355110;149;865074;-58
2022/01/18 05:57:57;;;;;;;2.06;0.97;;;;;;;;;;355774;148;866730;-57
2022/01/18 05:59:02;;;;;;;1.36;0.96;;;;;;;;;;356555;149;859014;-57
2022/01/18 06:00:05;;;;;;;2.90;1.14;;;;;;;;;;355715;149;860964;-57
2022/01/18 06:01:07;;;;;;;1.35;0.98;;;;;;;;;;356426;149;863808;-55
2022/01/18 06:02:37;;;;;;;1.47;1.09;;;;;;;;;;355986;150;858065;-55
2022/01/18 06:03:32;;;;;;;2.11;0.99;;;;;;;;;;353656;149;864957;-54
2022/01/18 06:07:11;;;;;;;1.46;0.92;;;;;;;;;;357496;149;858462;-56
2022/01/18 06:08:13;;;;;;;2.63;1.00;;;;;;;;;;354510;149;866763;-55
2022/01/18 06:09:14;;;;;;;2.11;1.09;;;;;;;;;;356287;148;864399;-56
2022/01/18 06:10:16;;;;;;;1.01;0.93;;;;;;;;;;356094;148;864952;-56
2022/01/18 06:11:18;;;;;;;0.73;0.73;;;;;;;;;;356774;148;857297;-55
2022/01/18 06:12:20;;;;;;;2.38;0.94;;;;;;;;;;355345;149;863309;-56
2022/01/18 06:13:22;;;;;;;1.29;1.15;;;;;;;;;;356266;148;864986;-56
2022/01/18 06:14:23;;;;;;;2.46;1.11;;;;;;;;;;354514;150;857404;-56
2022/01/18 06:15:25;;;;;;;2.94;1.03;;;;;;;;;;356241;150;865404;-56
2022/01/18 06:16:27;;;;;;;1.73;1.12;;;;;;;;;;357138;148;863804;-56
2022/01/18 06:17:29;;;;;;;2.39;1.27;;;;;;;;;;356531;149;856100;-56
2022/01/18 06:18:30;;;;;;;1.81;1.04;;;;;;;;;;357116;149;864997;-56
2022/01/18 06:19:32;;;;;;;0.94;0.79;;;;;;;;;;355483;149;863861;-56
2022/01/18 06:20:34;;;;;;;1.31;1.00;;;;;;;;;;354240;148;865867;-56
2022/01/18 06:21:36;;;;;;;1.59;1.07;;;;;;;;;;350100;150;865993;-56
2022/01/18 06:22:38;;;;;;;149.61;44.05;;;;;;;;;;354186;150;858671;-56
2022/01/18 06:23:39;;;;;;;6.46;2.23;;;;;;;;;;356728;148;859858;-56
2022/01/18 06:24:41;;;;;;;373.69;116.83;;;;;;;;;;358567;149;865373;-56
2022/01/18 06:25:42;;;;;;;100.70;38.04;;;;;;;;;;366437;140;863265;-56
2022/01/18 06:26:44;;;;;;;40.26;14.78;;;;;;;;;;372094;143;862621;-56
2022/01/18 06:27:45;;;;;;;18.71;8.77;;;;;;;;;;370857;143;863259;-55
2022/01/18 06:28:47;;;;;;;65.26;29.52;;;;;;;;;;370319;143;863277;-55
2022/01/18 06:29:48;;;;;;;55.00;26.94;;;;;;;;;;368144;145;860989;-55
2022/01/18 06:30:50;;;;;;;61.61;28.67;;;;;;;;;;364979;145;865707;-55
2022/01/18 06:31:52;;;;;;;15.57;8.07;;;;;;;;;;362482;146;865812;-55
2022/01/18 06:32:53;;;;;;;7.82;5.58;;;;;;;;;;369061;145;857557;-55
2022/01/18 06:33:55;;;;;;;12.30;7.19;;;;;;;;;;365920;145;867479;-56
2022/01/18 06:34:57;;;;;;;82.91;34.08;;;;;;;;;;361800;146;867226;-55
2022/01/18 06:35:58;;;;;;;14.36;7.88;;;;;;;;;;360539;149;864263;-55
2022/01/18 06:37:00;;;;;;;4.34;2.59;;;;;;;;;;361196;146;865030;-55
2022/01/18 06:38:02;;;;;;;2.34;1.52;;;;;;;;;;360864;145;863723;-55
2022/01/18 06:39:04;;;;;;;3.19;1.26;;;;;;;;;;362281;146;856263;-55
2022/01/18 06:40:07;;;;;;;1.18;0.97;;;;;;;;;;364893;145;864443;-55
2022/01/18 06:41:09;;;;;;;2.45;1.13;;;;;;;;;;363681;145;863636;-56
2022/01/18 06:42:11;;;;;;;1.79;1.06;;;;;;;;;;363480;145;864198;-55
2022/01/18 06:43:13;;;;;;;1.99;1.41;;;;;;;;;;361399;146;863896;-55
2022/01/18 06:44:14;;;;;;;3.13;0.91;;;;;;;;;;366124;146;863866;-55
2022/01/18 06:45:16;;;;;;;1.80;1.04;;;;;;;;;;365052;145;863394;-55
2022/01/18 06:46:18;;;;;;;1.65;0.87;;;;;;;;;;363370;145;863741;-55
2022/01/18 06:47:19;;;;;;;1.69;1.05;;;;;;;;;;360970;145;856111;-55
2022/01/18 06:48:21;;;;;;;1.10;0.74;;;;;;;;;;365104;145;864377;-55
2022/01/18 06:49:23;;;;;;;1.06;0.91;;;;;;;;;;362609;146;856402;-56
2022/01/18 06:50:25;;;;;;;3.24;1.06;;;;;;;;;;366593;145;861870;-56
2022/01/18 06:51:27;;;;;;;2.76;0.98;;;;;;;;;;366786;145;856005;-55
2022/01/18 06:52:28;;;;;;;1.11;1.00;;;;;;;;;;364549;145;863881;-55
2022/01/18 06:53:33;;;;;;;1.29;0.96;;;;;;;;;;363666;147;857482;-54
2022/01/18 06:54:33;;;;;;;1.50;0.86;;;;;;;;;;362082;145;863663;-55
2022/01/18 06:55:35;;;;;;;1.11;1.00;;;;;;;;;;365690;145;856143;-55
2022/01/18 06:56:37;;;;;;;2.04;1.18;;;;;;;;;;362636;145;863706;-56
2022/01/18 06:57:38;;;;;;;3.10;1.25;;;;;;;;;;362901;147;864238;-55
2022/01/18 06:58:40;;;;;;;2.90;1.24;;;;;;;;;;360994;145;856810;-55
2022/01/18 06:59:41;;;;;;;1.85;0.96;;;;;;;;;;365204;145;859736;-55
2022/01/18 07:00:43;;;;;;;2.31;1.31;;;;;;;;;;362371;147;856797;-56
2022/01/18 07:01:45;;;;;;;3.77;1.58;;;;;;;;;;362297;146;858930;-55
2022/01/18 07:02:46;;;;;;;1.67;1.03;;;;;;;;;;363352;145;856807;-56
2022/01/18 07:03:49;;;;;;;1.76;1.03;;;;;;;;;;356004;148;863950;-55
2022/01/18 07:04:50;;;;;;;1.69;1.01;;;;;;;;;;350734;152;856279;-55
2022/01/18 07:05:52;;;;;;;1.08;0.86;;;;;;;;;;352497;150;864081;-55
2022/01/18 07:06:53;;;;;;;2.05;0.93;;;;;;;;;;352191;149;864041;-56
2022/01/18 07:07:55;;;;;;;3.09;0.87;;;;;;;;;;352795;152;858735;-56
2022/01/18 07:08:57;;;;;;;1.24;0.88;;;;;;;;;;350425;149;865556;-55
2022/01/18 07:09:58;;;;;;;1.16;1.04;;;;;;;;;;353705;149;860686;-56
2022/01/18 07:11:00;;;;;;;3.09;1.13;;;;;;;;;;351798;150;863684;-55
2022/01/18 07:12:08;;;;;;;1.23;0.93;;;;;;;;;;350559;152;863884;-56
2022/01/18 07:13:05;;;;;;;2.09;1.26;;;;;;;;;;351914;151;856114;-55
2022/01/18 07:14:07;;;;;;;1.33;1.06;;;;;;;;;;353690;149;864102;-56
2022/01/18 07:15:09;;;;;;;2.97;1.36;;;;;;;;;;351057;152;856118;-56
2022/01/18 07:16:11;;;;;;;2.09;1.00;;;;;;;;;;350627;152;857569;-56
2022/01/18 07:17:12;;;;;;;1.78;0.74;;;;;;;;;;353302;149;856327;-56
2022/01/18 07:18:14;;;;;;;1.00;0.87;;;;;;;;;;351032;151;863741;-56
2022/01/18 07:19:16;;;;;;;1.64;1.42;;;;;;;;;;350228;152;857908;-56